Time;durP1;ratioP1;P1;durP2;ratioP2;P2;SDS_P1;SDS_P2;PMS_P1;PMS_P2;Temp;Humidity;BMP_temperature;BMP_pressure;BME280_temperature;BME280_humidity;BME280_pressure;Samples;Min_cycle;Max_cycle;Signal;HPM_P1;HPM_P2
2021/06/07 00:01:58;;;;;;;14.80;11.63;;;16.10;99.90;;;;;;5076862;28;20086;-80
2021/06/07 00:04:26;;;;;;;16.60;12.77;;;16.00;99.90;;;;;;5079266;28;20062;-78
2021/06/07 00:06:52;;;;;;;18.98;12.75;;;16.00;99.90;;;;;;5087086;28;20085;-79
2021/06/07 00:09:19;;;;;;;22.05;14.93;;;16.00;99.90;;;;;;5089231;28;20020;-78
2021/06/07 00:11:52;;;;;;;20.55;14.73;;;16.00;99.90;;;;;;5088900;28;20071;-77
2021/06/07 00:14:19;;;;;;;18.63;13.45;;;16.00;99.90;;;;;;5086924;28;20035;-78
2021/06/07 00:16:46;;;;;;;23.38;16.55;;;16.00;99.90;;;;;;5086474;28;20051;-79
2021/06/07 00:19:16;;;;;;;20.65;14.25;;;16.00;99.90;;;;;;5088195;28;20028;-78
2021/06/07 00:21:42;;;;;;;20.85;14.75;;;16.00;99.90;;;;;;5088277;28;20032;-79
2021/06/07 00:24:09;;;;;;;21.35;15.40;;;16.00;99.90;;;;;;5085050;28;20024;-78
2021/06/07 00:26:35;;;;;;;25.42;17.08;;;16.00;99.90;;;;;;5082733;28;20024;-78
2021/06/07 00:29:02;;;;;;;24.05;16.45;;;16.10;99.90;;;;;;5086084;28;20043;-79
2021/06/07 00:31:27;;;;;;;22.08;15.65;;;16.10;99.90;;;;;;5088083;28;20055;-79
2021/06/07 00:33:53;;;;;;;20.70;14.85;;;16.10;99.90;;;;;;5085686;28;20033;-79
2021/06/07 00:36:22;;;;;;;21.42;14.95;;;16.10;99.90;;;;;;5085885;28;20065;-79
2021/06/07 00:38:49;;;;;;;27.30;18.33;;;16.10;99.90;;;;;;5086227;28;20037;-79
2021/06/07 00:41:15;;;;;;;24.95;16.50;;;16.10;99.90;;;;;;5086735;28;20016;-78
2021/06/07 00:43:41;;;;;;;26.65;17.85;;;16.10;99.90;;;;;;5083979;28;20028;-80
2021/06/07 00:46:08;;;;;;;27.60;18.40;;;16.20;99.90;;;;;;5084039;28;20031;-79
2021/06/07 00:48:34;;;;;;;28.13;18.75;;;16.10;99.90;;;;;;5083602;28;20082;-79
2021/06/07 00:51:05;;;;;;;26.23;17.75;;;16.20;99.90;;;;;;5083580;28;20040;-79
2021/06/07 00:53:32;;;;;;;24.20;16.35;;;16.20;99.90;;;;;;5082008;28;20053;-78
2021/06/07 00:56:00;;;;;;;21.33;15.68;;;16.20;99.90;;;;;;5081878;28;20032;-79
2021/06/07 00:58:32;;;;;;;24.63;16.10;;;16.20;99.90;;;;;;5082375;28;20052;-78
2021/06/07 01:00:59;;;;;;;31.55;20.50;;;16.10;99.90;;;;;;5080412;28;20613;-80
2021/06/07 01:03:26;;;;;;;36.92;23.92;;;16.20;99.90;;;;;;5081155;28;20046;-78
2021/06/07 01:05:53;;;;;;;31.80;21.48;;;16.20;99.90;;;;;;5083909;28;20332;-79
2021/06/07 01:08:20;;;;;;;32.13;20.85;;;16.20;99.90;;;;;;5082708;28;20024;-79
2021/06/07 01:10:46;;;;;;;34.75;21.33;;;16.30;99.90;;;;;;5083910;28;20028;-79
2021/06/07 01:13:14;;;;;;;38.00;22.13;;;16.20;99.90;;;;;;5096232;28;20034;-79
2021/06/07 01:15:41;;;;;;;31.48;20.45;;;16.20;99.90;;;;;;5082517;28;20044;-79
2021/06/07 01:18:07;;;;;;;31.75;19.25;;;16.20;99.90;;;;;;5102845;28;20035;-79
2021/06/07 01:20:32;;;;;;;25.33;16.10;;;16.20;99.90;;;;;;5083960;28;20104;-79
2021/06/07 01:22:58;;;;;;;23.30;16.77;;;16.10;99.90;;;;;;5086795;28;20048;-79
2021/06/07 01:25:27;;;;;;;26.50;17.30;;;16.10;99.90;;;;;;5085557;28;20052;-79
2021/06/07 01:27:54;;;;;;;27.02;17.77;;;16.10;99.90;;;;;;5081288;28;20029;-79
2021/06/07 01:30:24;;;;;;;27.77;17.80;;;16.10;99.90;;;;;;5082916;28;20025;-79
2021/06/07 01:32:50;;;;;;;30.35;18.30;;;16.10;99.90;;;;;;5085638;28;20067;-79
2021/06/07 01:35:16;;;;;;;25.08;17.33;;;16.10;99.90;;;;;;5083185;28;20028;-79
2021/06/07 01:37:43;;;;;;;23.73;16.30;;;16.10;99.90;;;;;;5084203;28;20052;-79
2021/06/07 01:40:16;;;;;;;25.38;17.27;;;16.00;99.90;;;;;;5100078;28;20024;-79
2021/06/07 01:42:43;;;;;;;31.83;19.92;;;16.00;99.90;;;;;;5085695;28;20250;-79
2021/06/07 01:45:10;;;;;;;26.67;17.48;;;16.10;99.90;;;;;;5095834;28;20108;-79
2021/06/07 01:47:37;;;;;;;25.98;17.52;;;16.10;99.90;;;;;;5085803;28;20024;-79
2021/06/07 01:50:05;;;;;;;25.80;16.88;;;16.10;99.90;;;;;;5083014;28;20025;-79
2021/06/07 01:52:33;;;;;;;28.33;15.18;;;16.00;99.90;;;;;;5084480;28;20040;-79
2021/06/07 01:54:59;;;;;;;24.80;16.77;;;16.00;99.90;;;;;;5085838;28;20510;-79
2021/06/07 01:57:25;;;;;;;25.92;15.85;;;16.00;99.90;;;;;;5086846;28;20160;-79
2021/06/07 01:59:50;;;;;;;24.10;15.68;;;16.00;99.90;;;;;;5087451;28;20044;-79
2021/06/07 02:02:16;;;;;;;27.48;18.67;;;16.00;99.90;;;;;;5086736;28;20037;-79
2021/06/07 02:04:42;;;;;;;25.45;16.52;;;16.00;99.90;;;;;;5086501;28;20035;-79
2021/06/07 02:07:07;;;;;;;27.67;18.10;;;16.00;99.90;;;;;;5082910;28;20029;-80
2021/06/07 02:09:38;;;;;;;27.38;18.13;;;15.90;99.90;;;;;;5100884;28;20035;-79
2021/06/07 02:12:05;;;;;;;25.95;16.23;;;15.90;99.90;;;;;;5083002;28;20597;-79
2021/06/07 02:14:30;;;;;;;23.38;15.60;;;15.90;99.90;;;;;;5080411;28;20067;-79
2021/06/07 02:16:56;;;;;;;27.77;17.52;;;15.90;99.90;;;;;;5068979;28;20041;-80
2021/06/07 02:19:22;;;;;;;29.13;18.42;;;15.90;99.90;;;;;;5086386;28;20087;-80
2021/06/07 02:21:47;;;;;;;26.88;17.33;;;15.90;99.90;;;;;;5086966;28;20037;-80
2021/06/07 02:24:13;;;;;;;29.33;18.35;;;15.90;99.90;;;;;;5086103;28;20021;-79
2021/06/07 02:26:39;;;;;;;26.67;18.05;;;15.90;99.90;;;;;;5083123;28;20025;-80
2021/06/07 02:29:10;;;;;;;26.48;16.85;;;15.90;99.90;;;;;;5084361;28;20227;-79
2021/06/07 02:31:37;;;;;;;28.30;18.35;;;15.90;99.90;;;;;;5084757;28;20036;-79
2021/06/07 02:34:07;;;;;;;29.20;18.50;;;15.90;99.90;;;;;;5083895;28;20538;-78
2021/06/07 02:36:36;;;;;;;32.85;19.58;;;15.90;99.90;;;;;;5083468;28;20044;-79
2021/06/07 02:39:07;;;;;;;33.38;19.92;;;16.00;99.90;;;;;;5085544;28;20029;-79
2021/06/07 02:41:33;;;;;;;35.00;20.23;;;16.00;99.90;;;;;;5084400;28;20104;-79
2021/06/07 02:43:59;;;;;;;33.85;20.48;;;16.00;99.90;;;;;;5085824;28;20021;-80
2021/06/07 02:46:25;;;;;;;36.67;21.05;;;16.00;99.90;;;;;;5077718;28;20032;-80
2021/06/07 02:48:50;;;;;;;35.67;20.65;;;16.10;99.90;;;;;;5084837;28;20028;-79
2021/06/07 02:51:17;;;;;;;33.17;19.27;;;16.10;99.90;;;;;;5096317;28;20048;-80
2021/06/07 02:53:43;;;;;;;32.65;18.75;;;16.00;99.90;;;;;;5083710;28;20055;-79
2021/06/07 02:56:09;;;;;;;35.67;19.60;;;16.00;99.90;;;;;;5083207;28;20071;-78
2021/06/07 02:58:35;;;;;;;37.15;20.40;;;16.00;99.90;;;;;;5080332;28;20021;-79
2021/06/07 03:01:05;;;;;;;32.25;18.90;;;16.00;99.90;;;;;;5084569;28;20078;-79
2021/06/07 03:03:31;;;;;;;30.13;18.90;;;16.00;99.90;;;;;;5098395;28;20024;-79
2021/06/07 03:06:00;;;;;;;34.92;19.63;;;16.00;99.90;;;;;;5078756;28;20088;-79
2021/06/07 03:08:29;;;;;;;33.40;18.40;;;16.00;99.90;;;;;;5083572;28;20033;-79
2021/06/07 03:10:57;;;;;;;29.50;17.27;;;16.00;99.90;;;;;;5082826;28;20040;-79
2021/06/07 03:13:24;;;;;;;31.85;18.65;;;16.00;99.90;;;;;;5081411;28;20040;-79
2021/06/07 03:15:52;;;;;;;32.70;19.40;;;16.00;99.90;;;;;;5076988;28;20062;-78
2021/06/07 03:18:18;;;;;;;29.77;16.33;;;15.90;99.90;;;;;;5078480;28;20036;-79
2021/06/07 03:20:44;;;;;;;29.83;17.23;;;15.90;99.90;;;;;;5082625;28;20040;-79
2021/06/07 03:23:15;;;;;;;32.50;17.70;;;15.90;99.90;;;;;;5082746;28;20059;-79
2021/06/07 03:25:43;;;;;;;31.67;17.17;;;15.90;99.90;;;;;;5076358;28;20032;-79
2021/06/07 03:28:09;;;;;;;29.10;17.48;;;15.90;99.90;;;;;;5097368;28;20498;-79
2021/06/07 03:30:36;;;;;;;26.35;16.02;;;15.90;99.90;;;;;;5080265;28;20071;-79
2021/06/07 03:33:06;;;;;;;23.63;15.82;;;15.80;99.90;;;;;;5079876;28;20039;-78
2021/06/07 03:35:33;;;;;;;28.02;15.77;;;15.80;99.90;;;;;;5080259;28;20113;-79
2021/06/07 03:37:59;;;;;;;23.58;15.18;;;15.80;99.90;;;;;;5079443;28;20048;-79
2021/06/07 03:40:27;;;;;;;25.80;15.77;;;15.80;99.90;;;;;;5077543;28;20031;-79
2021/06/07 03:42:54;;;;;;;29.02;15.60;;;15.70;99.90;;;;;;5075381;28;20048;-77
2021/06/07 03:45:19;;;;;;;23.73;14.77;;;15.80;99.90;;;;;;5070984;28;20021;-77
2021/06/07 03:47:47;;;;;;;26.90;15.20;;;15.70;99.90;;;;;;5070989;28;20085;-77
2021/06/07 03:50:16;;;;;;;25.83;15.90;;;15.80;99.90;;;;;;5069212;28;20036;-77
2021/06/07 03:52:43;;;;;;;30.15;16.35;;;15.80;99.90;;;;;;5071695;28;20449;-78
2021/06/07 03:55:13;;;;;;;24.13;14.77;;;15.80;99.90;;;;;;5072744;28;20075;-78
2021/06/07 03:57:39;;;;;;;30.67;17.30;;;15.80;99.90;;;;;;5074675;28;20028;-77
2021/06/07 04:00:07;;;;;;;30.45;17.25;;;15.90;99.90;;;;;;5076307;28;20039;-78
2021/06/07 04:02:38;;;;;;;33.42;18.42;;;15.90;99.90;;;;;;5071596;28;20033;-77
2021/06/07 04:05:05;;;;;;;30.85;17.58;;;15.90;99.90;;;;;;5059569;28;20032;-78
2021/06/07 04:07:32;;;;;;;34.53;17.48;;;15.90;99.90;;;;;;5077028;28;20028;-78
2021/06/07 04:09:58;;;;;;;30.73;17.67;;;16.00;99.90;;;;;;5079532;28;20056;-79
2021/06/07 04:12:24;;;;;;;32.65;17.73;;;16.00;99.90;;;;;;5096415;28;20048;-78
2021/06/07 04:14:49;;;;;;;29.35;16.33;;;16.10;99.90;;;;;;5080852;28;20395;-78
2021/06/07 04:17:15;;;;;;;35.03;19.15;;;16.10;99.90;;;;;;5091877;28;20044;-78
2021/06/07 04:19:41;;;;;;;33.15;17.88;;;16.10;99.90;;;;;;5080146;28;20028;-78
2021/06/07 04:22:06;;;;;;;33.90;18.05;;;16.20;99.90;;;;;;5078737;28;20052;-78
2021/06/07 04:24:32;;;;;;;29.33;16.83;;;16.10;99.90;;;;;;5079581;28;20040;-79
2021/06/07 04:26:58;;;;;;;25.58;14.85;;;16.20;99.90;;;;;;5079502;28;20019;-78
2021/06/07 04:29:24;;;;;;;24.77;14.73;;;16.10;99.90;;;;;;5076000;28;20430;-78
2021/06/07 04:31:49;;;;;;;24.05;13.70;;;16.20;99.90;;;;;;5078688;28;20032;-78
2021/06/07 04:34:15;;;;;;;26.40;14.13;;;16.10;99.90;;;;;;5078817;28;20025;-78
2021/06/07 04:36:41;;;;;;;30.10;15.90;;;16.20;99.90;;;;;;5079086;28;20426;-80
2021/06/07 04:39:07;;;;;;;26.60;15.85;;;16.20;99.90;;;;;;5079391;28;20048;-79
2021/06/07 04:41:33;;;;;;;25.52;15.55;;;16.20;99.90;;;;;;5081450;28;20030;-79
2021/06/07 04:44:00;;;;;;;28.85;14.93;;;16.20;99.90;;;;;;5079218;28;20107;-80
2021/06/07 04:46:27;;;;;;;24.63;14.85;;;16.20;99.90;;;;;;5078838;28;20071;-80
2021/06/07 04:48:53;;;;;;;23.98;14.60;;;16.30;99.90;;;;;;5079115;28;20071;-79
2021/06/07 04:51:18;;;;;;;28.67;15.73;;;16.20;99.90;;;;;;5083541;28;20041;-78
2021/06/07 04:53:45;;;;;;;28.05;14.60;;;16.20;99.90;;;;;;5084581;28;20028;-79
2021/06/07 04:56:11;;;;;;;26.10;15.60;;;16.30;99.90;;;;;;5077922;28;20095;-79
2021/06/07 04:58:37;;;;;;;27.00;15.60;;;16.30;99.90;;;;;;5083083;28;20526;-79
2021/06/07 05:01:06;;;;;;;27.50;15.70;;;16.30;99.90;;;;;;5100676;28;20036;-79
2021/06/07 05:03:33;;;;;;;28.85;15.50;;;16.30;99.90;;;;;;5084016;28;20115;-79
2021/06/07 05:06:00;;;;;;;32.25;17.77;;;16.30;99.90;;;;;;5098160;28;20028;-78
2021/06/07 05:08:28;;;;;;;36.63;18.10;;;16.40;99.90;;;;;;5083946;28;20036;-78
2021/06/07 05:10:54;;;;;;;32.58;17.80;;;16.40;99.90;;;;;;5083901;28;20067;-78
2021/06/07 05:13:20;;;;;;;32.15;16.58;;;16.30;99.90;;;;;;5082414;28;20062;-78
2021/06/07 05:15:46;;;;;;;34.55;18.17;;;16.30;99.90;;;;;;5083042;28;20498;-78
2021/06/07 05:18:12;;;;;;;34.42;18.00;;;16.40;99.90;;;;;;5083793;28;20025;-79
2021/06/07 05:20:38;;;;;;;32.67;16.63;;;16.40;99.90;;;;;;5083860;28;20084;-80
2021/06/07 05:23:04;;;;;;;27.90;15.32;;;16.30;99.90;;;;;;5098155;28;20048;-79
2021/06/07 05:25:32;;;;;;;33.30;18.75;;;16.30;99.90;;;;;;5081382;28;20021;-79
2021/06/07 05:28:00;;;;;;;32.58;16.45;;;16.40;99.90;;;;;;5081430;28;20040;-80
2021/06/07 05:30:29;;;;;;;32.75;17.27;;;16.40;99.90;;;;;;5083970;28;20134;-79
2021/06/07 05:32:55;;;;;;;30.70;16.20;;;16.40;99.90;;;;;;5082471;28;20040;-78
2021/06/07 05:35:23;;;;;;;30.98;17.52;;;16.40;99.90;;;;;;5082638;28;20086;-79
2021/06/07 05:37:49;;;;;;;33.78;17.67;;;16.40;99.90;;;;;;5082926;28;20033;-80
2021/06/07 05:40:18;;;;;;;32.70;16.75;;;16.40;99.90;;;;;;5084123;28;20033;-79
2021/06/07 05:42:44;;;;;;;34.65;17.23;;;16.40;99.90;;;;;;5084237;28;20033;-78
2021/06/07 05:45:11;;;;;;;32.75;16.83;;;16.50;99.90;;;;;;5082893;28;20074;-78
2021/06/07 05:47:37;;;;;;;26.88;15.80;;;16.50;99.90;;;;;;5079771;28;20042;-79
2021/06/07 05:50:08;;;;;;;28.30;15.63;;;16.50;99.90;;;;;;5082516;28;20037;-78
2021/06/07 05:52:34;;;;;;;28.85;14.50;;;16.50;99.90;;;;;;5082199;28;20494;-79
2021/06/07 05:55:01;;;;;;;27.63;15.23;;;16.50;99.90;;;;;;5082147;28;20032;-79
2021/06/07 05:57:26;;;;;;;31.17;16.70;;;16.50;99.90;;;;;;5079931;28;20086;-79
2021/06/07 05:59:52;;;;;;;25.08;13.50;;;16.50;99.90;;;;;;5082173;28;20037;-79
2021/06/07 06:02:18;;;;;;;27.50;15.90;;;16.50;99.90;;;;;;5080283;28;20109;-79
2021/06/07 06:04:43;;;;;;;27.92;15.88;;;16.50;99.90;;;;;;5079778;28;20029;-78
2021/06/07 06:07:09;;;;;;;29.33;16.55;;;16.50;99.90;;;;;;5078762;28;20025;-79
2021/06/07 06:09:35;;;;;;;28.27;15.57;;;16.60;99.90;;;;;;5081480;28;20426;-78
2021/06/07 06:12:02;;;;;;;27.35;14.57;;;16.60;99.90;;;;;;5079405;28;20039;-78
2021/06/07 06:14:28;;;;;;;27.58;15.48;;;16.70;99.90;;;;;;5079553;28;20029;-78
2021/06/07 06:16:55;;;;;;;30.08;17.38;;;16.70;99.90;;;;;;5075349;28;20056;-78
2021/06/07 06:19:23;;;;;;;26.38;15.43;;;16.80;99.90;;;;;;5095439;28;20032;-78
2021/06/07 06:21:50;;;;;;;27.10;14.95;;;16.80;99.90;;;;;;5080964;28;20078;-78
2021/06/07 06:24:16;;;;;;;27.98;15.68;;;16.80;99.90;;;;;;5079166;28;20032;-78
2021/06/07 06:26:42;;;;;;;30.40;16.23;;;16.90;99.90;;;;;;5079558;28;20037;-79
2021/06/07 06:29:09;;;;;;;26.88;15.40;;;17.00;99.90;;;;;;5082023;28;20040;-78
2021/06/07 06:31:35;;;;;;;33.33;17.50;;;17.00;99.90;;;;;;5083517;28;20043;-78
2021/06/07 06:34:01;;;;;;;32.15;16.25;;;17.10;99.90;;;;;;5085094;28;20088;-78
2021/06/07 06:36:27;;;;;;;26.35;15.32;;;17.20;99.90;;;;;;5083344;28;20045;-78
2021/06/07 06:38:54;;;;;;;27.08;14.95;;;17.20;99.90;;;;;;5080654;28;20135;-78
2021/06/07 06:41:20;;;;;;;25.45;13.73;;;17.20;99.90;;;;;;5081473;28;20028;-78
2021/06/07 06:43:45;;;;;;;27.52;15.40;;;17.10;99.90;;;;;;5073604;28;20021;-78
2021/06/07 06:46:11;;;;;;;25.25;15.60;;;17.20;99.90;;;;;;5077513;28;20111;-78
2021/06/07 06:48:37;;;;;;;29.00;14.73;;;17.20;99.90;;;;;;5077552;28;20032;-78
2021/06/07 06:51:04;;;;;;;27.15;14.55;;;17.20;99.90;;;;;;5077332;28;20127;-78
2021/06/07 06:53:30;;;;;;;27.38;14.77;;;17.20;99.90;;;;;;5077966;28;20029;-78
2021/06/07 06:55:55;;;;;;;29.23;15.23;;;17.20;99.90;;;;;;5092739;28;20031;-78
2021/06/07 06:58:22;;;;;;;26.63;15.48;;;17.20;99.90;;;;;;5071743;28;20033;-78
2021/06/07 07:00:48;;;;;;;26.70;14.45;;;17.20;99.90;;;;;;5074537;28;20601;-78
2021/06/07 07:03:17;;;;;;;25.25;14.07;;;17.20;99.90;;;;;;5076124;28;20024;-78
2021/06/07 07:05:44;;;;;;;32.00;15.85;;;17.10;99.90;;;;;;5076502;28;20096;-78
2021/06/07 07:08:10;;;;;;;30.85;15.40;;;17.20;99.90;;;;;;5076716;28;20035;-79
2021/06/07 07:10:39;;;;;;;27.30;15.63;;;17.20;99.90;;;;;;5078964;28;20029;-79
2021/06/07 07:13:05;;;;;;;26.75;14.43;;;17.10;99.90;;;;;;5080037;28;20055;-79
2021/06/07 07:15:31;;;;;;;27.27;14.90;;;17.10;99.90;;;;;;5075902;28;20032;-79
2021/06/07 07:17:57;;;;;;;29.20;15.82;;;17.10;99.90;;;;;;5075209;28;20546;-79
2021/06/07 07:20:23;;;;;;;25.60;13.63;;;17.20;99.90;;;;;;5077744;28;20032;-79
2021/06/07 07:22:48;;;;;;;22.92;14.25;;;17.10;99.90;;;;;;5076432;28;20092;-79
2021/06/07 07:25:15;;;;;;;20.98;13.27;;;17.10;99.90;;;;;;5076107;28;20115;-79
2021/06/07 07:27:41;;;;;;;27.08;14.35;;;17.10;99.90;;;;;;5075629;28;20028;-79
2021/06/07 07:30:13;;;;;;;23.65;14.13;;;17.10;99.90;;;;;;5074617;28;20024;-79
2021/06/07 07:32:44;;;;;;;22.20;13.98;;;17.10;99.90;;;;;;5092592;28;20044;-79
2021/06/07 07:35:10;;;;;;;23.98;15.13;;;17.20;99.90;;;;;;5075149;28;20029;-79
2021/06/07 07:37:37;;;;;;;26.42;15.52;;;17.20;99.90;;;;;;5073318;28;20028;-79
2021/06/07 07:40:08;;;;;;;23.58;13.73;;;17.20;99.90;;;;;;5078735;28;20174;-79
2021/06/07 07:42:34;;;;;;;26.20;13.50;;;17.30;99.90;;;;;;5073798;28;20044;-79
2021/06/07 07:45:01;;;;;;;21.17;12.40;;;17.30;99.90;;;;;;5071900;28;20560;-79
2021/06/07 07:47:28;;;;;;;21.02;12.77;;;17.40;99.90;;;;;;5071623;28;20048;-79
2021/06/07 07:49:54;;;;;;;23.00;12.60;;;17.40;99.90;;;;;;5072711;28;20031;-79
2021/06/07 07:52:23;;;;;;;18.00;12.07;;;17.50;99.90;;;;;;5069820;28;20032;-80
2021/06/07 07:54:54;;;;;;;19.58;12.50;;;17.50;99.90;;;;;;5070489;28;20055;-80
2021/06/07 07:57:21;;;;;;;20.88;12.25;;;17.60;99.90;;;;;;5073182;28;20055;-79
2021/06/07 07:59:47;;;;;;;24.15;13.77;;;17.60;99.90;;;;;;5070420;28;20029;-79
2021/06/07 08:02:12;;;;;;;21.63;13.05;;;17.70;99.90;;;;;;5073946;28;20024;-80
2021/06/07 08:04:38;;;;;;;22.42;13.80;;;17.70;99.90;;;;;;5072471;28;20115;-78
2021/06/07 08:07:05;;;;;;;19.63;11.57;;;17.80;99.90;;;;;;5074392;28;20395;-79
2021/06/07 08:09:32;;;;;;;23.73;13.95;;;17.80;99.90;;;;;;5074523;28;20031;-81
2021/06/07 08:11:59;;;;;;;21.42;13.15;;;17.90;99.90;;;;;;5075148;28;20035;-78
2021/06/07 08:14:26;;;;;;;21.20;12.73;;;17.90;99.90;;;;;;5074775;28;20094;-81
2021/06/07 08:16:52;;;;;;;22.15;13.15;;;18.00;99.90;;;;;;5072334;28;20495;-79
2021/06/07 08:19:18;;;;;;;18.75;11.00;;;18.00;99.90;;;;;;5074660;28;20029;-80
2021/06/07 08:21:43;;;;;;;22.40;13.20;;;18.10;99.90;;;;;;5073388;28;20028;-80
2021/06/07 08:24:09;;;;;;;19.58;12.35;;;18.20;99.90;;;;;;5073579;28;20048;-80
2021/06/07 08:26:35;;;;;;;21.55;13.02;;;18.20;99.90;;;;;;5073307;28;20025;-79
2021/06/07 08:29:01;;;;;;;22.40;13.43;;;18.30;99.90;;;;;;5073565;28;20534;-80
2021/06/07 08:31:26;;;;;;;20.45;12.82;;;18.30;99.90;;;;;;5074337;28;20033;-79
2021/06/07 08:33:53;;;;;;;22.67;14.30;;;18.40;99.90;;;;;;5075043;28;20021;-80
2021/06/07 08:36:18;;;;;;;20.40;12.50;;;18.50;99.90;;;;;;5070375;28;20483;-80
2021/06/07 08:38:45;;;;;;;22.77;13.07;;;18.60;99.90;;;;;;5074530;28;20127;-80
2021/06/07 08:41:11;;;;;;;19.10;12.95;;;18.70;99.90;;;;;;5074905;28;20503;-80
2021/06/07 08:43:37;;;;;;;22.27;13.48;;;18.80;99.90;;;;;;5073706;28;20039;-79
2021/06/07 08:46:04;;;;;;;18.65;12.27;;;19.00;99.90;;;;;;5074656;28;20029;-79
2021/06/07 08:48:29;;;;;;;18.85;12.20;;;19.10;99.90;;;;;;5072129;28;20052;-79
2021/06/07 08:51:01;;;;;;;21.98;12.95;;;19.20;99.90;;;;;;5076083;28;20017;-79
2021/06/07 08:53:27;;;;;;;18.42;11.90;;;19.30;99.90;;;;;;5077627;28;20134;-79
2021/06/07 08:55:54;;;;;;;21.15;13.80;;;19.40;99.90;;;;;;5073488;28;20411;-79
2021/06/07 08:58:19;;;;;;;21.48;14.55;;;19.50;99.90;;;;;;5073259;28;20029;-78
2021/06/07 09:00:45;;;;;;;20.98;13.32;;;19.50;99.90;;;;;;5074817;28;20025;-79
2021/06/07 09:03:19;;;;;;;22.90;14.00;;;19.60;99.90;;;;;;5073126;28;20047;-79
2021/06/07 09:05:51;;;;;;;21.33;13.45;;;19.70;99.90;;;;;;5072277;28;20032;-80
2021/06/07 09:08:17;;;;;;;22.55;13.63;;;19.80;99.90;;;;;;5073186;28;20040;-79
2021/06/07 09:10:46;;;;;;;19.10;12.60;;;19.90;99.90;;;;;;5074150;28;20047;-79
2021/06/07 09:13:15;;;;;;;21.38;13.27;;;20.00;99.90;;;;;;5074940;28;20097;-79
2021/06/07 09:15:52;;;;;;;19.13;12.45;;;20.10;99.90;;;;;;5073870;28;20070;-79
2021/06/07 09:18:33;;;;;;;20.08;13.75;;;20.20;99.90;;;;;;5069648;28;20082;-79
2021/06/07 09:21:12;;;;;;;22.48;12.75;;;20.20;99.90;;;;;;5072429;28;20044;-79
2021/06/07 09:23:51;;;;;;;18.45;11.60;;;20.40;99.90;;;;;;5071188;28;20066;-78
2021/06/07 09:26:28;;;;;;;19.33;13.52;;;20.50;99.90;;;;;;5072982;28;20025;-78
2021/06/07 09:28:56;;;;;;;18.73;12.75;;;20.70;99.90;;;;;;5071052;28;20037;-80
2021/06/07 09:31:27;;;;;;;20.08;13.23;;;20.80;99.90;;;;;;5073016;28;20592;-79
2021/06/07 09:33:53;;;;;;;17.83;11.80;;;20.90;99.90;;;;;;5072977;28;20068;-78
2021/06/07 09:36:29;;;;;;;19.15;12.65;;;20.90;99.90;;;;;;5072027;28;20029;-80
2021/06/07 09:39:11;;;;;;;16.77;12.00;;;20.90;99.90;;;;;;5075917;28;20081;-79
2021/06/07 09:41:52;;;;;;;19.85;12.43;;;21.00;99.90;;;;;;5076526;28;20616;-79
2021/06/07 09:44:43;;;;;;;17.65;11.48;;;21.20;99.90;;;;;;5077747;28;20052;-78
2021/06/07 09:47:18;;;;;;;19.52;11.98;;;21.30;99.90;;;;;;5062555;28;20053;-79
2021/06/07 09:50:04;;;;;;;17.05;12.55;;;21.40;99.90;;;;;;5074211;28;20043;-79
2021/06/07 09:52:43;;;;;;;14.35;10.15;;;21.50;99.90;;;;;;5075098;28;20064;-79
2021/06/07 09:55:14;;;;;;;16.58;11.05;;;21.50;99.90;;;;;;5076053;28;20384;-79
2021/06/07 09:57:42;;;;;;;15.68;10.25;;;21.60;99.90;;;;;;5075200;28;20093;-79
2021/06/07 10:00:09;;;;;;;13.90;10.65;;;21.70;99.90;;;;;;5077234;28;20036;-79
2021/06/07 10:02:37;;;;;;;17.67;11.25;;;21.80;99.90;;;;;;5075665;28;20096;-79
2021/06/07 10:05:04;;;;;;;16.48;11.85;;;21.80;99.90;;;;;;5074836;28;20486;-79
2021/06/07 10:07:30;;;;;;;14.32;10.18;;;22.00;99.90;;;;;;5077411;28;20029;-79
2021/06/07 10:10:20;;;;;;;19.25;10.75;;;22.00;99.90;;;;;;5075915;28;20021;-79
2021/06/07 10:12:47;;;;;;;14.25;9.77;;;22.10;99.90;;;;;;5075440;28;20103;-78
2021/06/07 10:15:29;;;;;;;19.55;10.70;;;22.20;99.90;;;;;;5075650;28;20043;-79
2021/06/07 10:17:55;;;;;;;21.35;11.70;;;22.30;99.90;;;;;;5069198;28;20024;-78
2021/06/07 10:22:46;;;;;;;19.52;12.20;;;22.50;99.90;;;;;;5052843;28;20033;-78
2021/06/07 10:25:13;;;;;;;17.50;10.70;;;22.50;99.90;;;;;;5068219;28;20032;-79
2021/06/07 10:27:39;;;;;;;16.20;11.48;;;22.40;99.90;;;;;;5072118;28;20056;-78
2021/06/07 10:30:18;;;;;;;13.68;9.40;;;22.40;99.90;;;;;;5072927;28;20033;-77
2021/06/07 10:32:44;;;;;;;17.75;11.48;;;22.30;99.90;;;;;;5074891;28;20032;-79
2021/06/07 10:35:11;;;;;;;15.02;11.50;;;22.30;99.90;;;;;;5073511;28;20048;-79
2021/06/07 10:37:57;;;;;;;15.68;10.93;;;22.40;99.90;;;;;;5075516;28;20082;-79
2021/06/07 10:40:25;;;;;;;16.90;12.38;;;22.40;99.90;;;;;;5074599;28;20780;-78
2021/06/07 10:42:57;;;;;;;17.40;11.98;;;22.40;99.90;;;;;;5076250;28;20051;-78
2021/06/07 10:45:26;;;;;;;18.23;12.10;;;22.40;99.90;;;;;;5075299;28;20053;-78
2021/06/07 10:47:52;;;;;;;17.83;12.43;;;22.40;99.90;;;;;;5074016;28;20056;-77
2021/06/07 10:50:21;;;;;;;18.38;12.98;;;22.50;99.90;;;;;;5073887;28;20036;-77
2021/06/07 10:53:01;;;;;;;15.48;11.05;;;22.60;99.90;;;;;;5074111;28;20041;-78
2021/06/07 10:55:34;;;;;;;21.17;11.60;;;22.60;99.90;;;;;;5070837;28;20111;-78
2021/06/07 10:58:05;;;;;;;16.35;11.10;;;22.60;99.90;;;;;;5074056;28;20769;-78
2021/06/07 11:00:48;;;;;;;16.98;11.30;;;22.70;99.90;;;;;;5074562;28;20047;-78
2021/06/07 11:03:22;;;;;;;17.33;12.10;;;22.80;99.90;;;;;;5074554;28;20166;-78
2021/06/07 11:05:54;;;;;;;16.45;12.20;;;22.80;99.90;;;;;;5070834;28;20056;-78
2021/06/07 11:08:29;;;;;;;14.68;10.38;;;22.90;99.90;;;;;;5071680;28;20115;-78
2021/06/07 11:11:09;;;;;;;16.30;11.30;;;23.00;99.90;;;;;;5073509;28;20056;-78
2021/06/07 11:14:01;;;;;;;18.40;12.68;;;23.10;99.90;;;;;;5073271;28;20486;-78
2021/06/07 11:16:28;;;;;;;15.23;10.68;;;23.20;99.90;;;;;;5072409;28;20040;-78
2021/06/07 11:18:58;;;;;;;15.40;11.57;;;23.40;99.90;;;;;;5073434;28;20056;-77
2021/06/07 11:21:34;;;;;;;16.23;11.02;;;23.40;99.90;;;;;;5074476;28;20457;-77
2021/06/07 11:24:01;;;;;;;16.13;11.30;;;23.50;99.90;;;;;;5073530;28;20108;-78
2021/06/07 11:26:41;;;;;;;15.45;11.15;;;23.60;99.90;;;;;;5072470;28;20055;-78
2021/06/07 11:29:14;;;;;;;15.85;11.07;;;23.70;99.90;;;;;;5070282;28;20052;-77
2021/06/07 11:31:41;;;;;;;16.70;10.60;;;23.90;99.90;;;;;;5069415;28;20060;-77
2021/06/07 11:34:17;;;;;;;16.58;11.82;;;23.90;99.90;;;;;;5068127;28;20618;-78
2021/06/07 11:36:44;;;;;;;;;;;24.00;99.90;;;;;;5071659;28;20539;-78
2021/06/07 11:39:21;;;;;;;16.70;11.20;;;24.00;99.90;;;;;;5074252;28;19942;-78
2021/06/07 11:41:58;;;;;;;18.52;12.90;;;23.90;99.90;;;;;;5071121;28;20595;-77
2021/06/07 11:44:45;;;;;;;19.92;11.98;;;24.00;99.90;;;;;;5072983;28;20032;-77
2021/06/07 11:47:15;;;;;;;15.95;11.23;;;24.00;99.90;;;;;;5069878;28;20020;-77
2021/06/07 11:49:56;;;;;;;14.27;11.30;;;24.00;99.90;;;;;;5066970;28;20061;-77
2021/06/07 11:52:49;;;;;;;14.35;10.45;;;24.00;99.90;;;;;;5068846;28;20025;-78
2021/06/07 11:55:15;;;;;;;16.02;11.15;;;24.00;99.90;;;;;;5066054;28;20596;-78
2021/06/07 11:57:41;;;;;;;16.13;10.57;;;24.20;99.90;;;;;;5070412;28;20063;-79
2021/06/07 12:00:07;;;;;;;15.18;11.25;;;24.40;99.90;;;;;;5069623;28;20016;-78
2021/06/07 12:02:33;;;;;;;15.00;11.13;;;24.70;99.90;;;;;;5069525;28;20089;-78
2021/06/07 12:05:13;;;;;;;12.70;10.38;;;24.90;99.90;;;;;;5071150;28;20025;-78
2021/06/07 12:07:44;;;;;;;14.85;11.07;;;25.10;99.90;;;;;;5069607;28;20967;-78
2021/06/07 12:10:14;;;;;;;12.00;10.43;;;25.20;99.90;;;;;;5069061;28;20021;-77
2021/06/07 12:12:40;;;;;;;11.65;9.70;;;25.30;99.90;;;;;;5084307;28;20400;-78
2021/06/07 12:15:13;;;;;;;14.50;9.77;;;25.40;99.90;;;;;;5068368;28;20029;-78
2021/06/07 12:17:44;;;;;;;15.32;10.50;;;25.70;99.90;;;;;;5067073;28;20161;-78
2021/06/07 12:20:10;;;;;;;12.25;9.43;;;26.00;99.90;;;;;;5085106;28;20047;-78
2021/06/07 12:22:41;;;;;;;12.65;9.75;;;26.40;99.90;;;;;;5085116;28;20047;-78
2021/06/07 12:28:16;;;;;;;10.90;8.80;;;26.40;99.90;;;;;;5067588;28;20131;-78
2021/06/07 12:28:29;;;;;;;11.77;9.02;;;26.70;99.90;;;;;;5069908;28;20037;-79
2021/06/07 12:30:57;;;;;;;9.80;8.20;;;26.90;99.90;;;;;;5071370;28;20187;-79
2021/06/07 12:33:31;;;;;;;12.07;9.73;;;27.00;99.90;;;;;;5069503;28;20040;-78
2021/06/07 12:35:58;;;;;;;9.15;7.82;;;27.00;99.90;;;;;;5068974;28;20036;-77
2021/06/07 12:38:25;;;;;;;9.63;7.65;;;27.10;99.90;;;;;;5067967;28;20029;-78